Time;durP1;ratioP1;P1;durP2;ratioP2;P2;SDS_P1;SDS_P2;PMS_P1;PMS_P2;Temp;Humidity;BMP_temperature;BMP_pressure;BME280_temperature;BME280_humidity;BME280_pressure;Samples;Min_cycle;Max_cycle;Signal;HPM_P1;HPM_P2
2022/03/25 00:02:07;;;;;;;59.28;33.30;;;6.80;45.10;;;;;;5074670;28;20034;-20
2022/03/25 00:04:33;;;;;;;39.80;24.50;;;6.70;48.80;;;;;;5074648;28;20032;-21
2022/03/25 00:06:59;;;;;;;55.17;30.00;;;6.70;48.10;;;;;;5074372;28;20070;-20
2022/03/25 00:09:25;;;;;;;47.75;26.48;;;6.60;48.80;;;;;;5074469;28;20021;-20
2022/03/25 00:11:53;;;;;;;64.95;32.28;;;6.50;48.30;;;;;;5074368;28;20120;-20
2022/03/25 00:14:19;;;;;;;29.25;15.93;;;6.50;50.00;;;;;;5074345;28;20047;-21
2022/03/25 00:16:46;;;;;;;30.20;17.25;;;6.50;47.60;;;;;;5074519;28;20025;-21
2022/03/25 00:19:12;;;;;;;62.75;34.20;;;6.40;46.40;;;;;;5074494;28;20025;-20
2022/03/25 00:21:38;;;;;;;61.53;34.10;;;6.40;47.40;;;;;;5074333;28;20033;-21
2022/03/25 00:24:05;;;;;;;56.25;33.50;;;6.40;49.90;;;;;;5072910;28;20032;-20
2022/03/25 00:26:31;;;;;;;41.85;21.60;;;6.30;49.30;;;;;;5073968;28;20507;-21
2022/03/25 00:28:58;;;;;;;53.42;28.55;;;6.30;47.30;;;;;;5074056;28;20031;-20
2022/03/25 00:31:23;;;;;;;38.28;20.52;;;6.30;47.40;;;;;;5074381;28;20032;-20
2022/03/25 00:33:49;;;;;;;38.95;23.08;;;6.30;46.50;;;;;;5074024;28;20032;-20
2022/03/25 00:36:17;;;;;;;22.50;12.30;;;6.30;47.00;;;;;;5073605;28;20031;-21
2022/03/25 00:38:44;;;;;;;26.83;14.55;;;6.20;45.80;;;;;;5073541;28;20040;-20
2022/03/25 00:41:12;;;;;;;41.38;23.52;;;6.20;46.10;;;;;;5074236;28;20099;-20
2022/03/25 00:43:48;;;;;;;47.47;26.30;;;6.20;48.20;;;;;;5074083;28;20035;-20
2022/03/25 00:46:15;;;;;;;39.92;23.17;;;6.20;47.60;;;;;;5073733;28;20020;-22
2022/03/25 00:48:42;;;;;;;32.63;19.30;;;6.20;47.40;;;;;;5073999;28;20039;-21
2022/03/25 00:51:09;;;;;;;40.17;21.38;;;6.10;47.50;;;;;;5073637;28;20024;-20
2022/03/25 00:53:36;;;;;;;32.40;18.17;;;6.10;48.20;;;;;;5073661;28;20054;-20
2022/03/25 00:56:03;;;;;;;33.45;18.27;;;6.10;47.10;;;;;;5073913;28;20067;-20
2022/03/25 00:58:30;;;;;;;35.67;19.92;;;6.10;46.60;;;;;;5073327;28;20020;-21
2022/03/25 01:00:56;;;;;;;49.97;28.60;;;6.10;47.50;;;;;;5074021;28;20054;-20
2022/03/25 01:03:22;;;;;;;30.02;16.25;;;6.00;47.90;;;;;;5073496;28;20561;-21
2022/03/25 01:05:49;;;;;;;33.80;19.45;;;5.90;48.60;;;;;;5073387;28;20024;-21
2022/03/25 01:08:15;;;;;;;44.58;25.38;;;5.90;48.70;;;;;;5073208;28;20056;-21
2022/03/25 01:10:43;;;;;;;42.90;24.95;;;5.90;47.40;;;;;;5071750;28;20021;-20
2022/03/25 01:13:10;;;;;;;35.03;21.38;;;5.90;48.50;;;;;;5073368;28;20107;-20
2022/03/25 01:15:37;;;;;;;41.10;23.25;;;5.90;47.90;;;;;;5074137;28;20047;-21
2022/03/25 01:18:04;;;;;;;19.15;11.55;;;5.90;48.20;;;;;;5073772;28;20024;-20
2022/03/25 01:20:31;;;;;;;37.30;21.35;;;5.90;47.50;;;;;;5073237;28;20032;-20
2022/03/25 01:22:56;;;;;;;44.50;24.02;;;5.80;47.60;;;;;;5074017;28;20036;-21
2022/03/25 01:25:22;;;;;;;32.00;19.38;;;5.80;48.40;;;;;;5073454;28;20468;-20
2022/03/25 01:27:48;;;;;;;16.15;7.68;;;5.80;47.90;;;;;;5071893;28;20051;-20
2022/03/25 01:30:15;;;;;;;15.25;8.30;;;5.80;46.90;;;;;;5073190;28;20024;-21
2022/03/25 01:32:41;;;;;;;21.10;12.02;;;5.70;46.20;;;;;;5073417;28;20028;-21
2022/03/25 01:35:09;;;;;;;21.55;11.85;;;5.70;45.90;;;;;;5073080;28;20070;-21
2022/03/25 01:37:36;;;;;;;34.88;20.20;;;5.70;46.30;;;;;;5073279;28;20032;-20
2022/03/25 01:40:08;;;;;;;41.22;24.08;;;5.60;46.70;;;;;;5072855;28;20052;-20
2022/03/25 01:42:36;;;;;;;37.50;21.88;;;5.60;47.20;;;;;;5072856;28;20507;-21
2022/03/25 01:45:04;;;;;;;37.72;22.48;;;5.60;47.80;;;;;;5073006;28;20036;-21
2022/03/25 01:47:32;;;;;;;35.38;19.00;;;5.50;48.20;;;;;;5072980;28;20392;-21
2022/03/25 01:50:00;;;;;;;20.75;12.10;;;5.50;47.50;;;;;;5071690;28;20024;-21
2022/03/25 01:52:27;;;;;;;51.17;29.33;;;5.50;48.30;;;;;;5072943;28;20074;-21
2022/03/25 01:54:53;;;;;;;38.80;22.02;;;5.50;48.00;;;;;;5073121;28;20373;-21
2022/03/25 01:57:25;;;;;;;23.23;12.70;;;5.40;48.30;;;;;;5073183;28;20107;-21
2022/03/25 01:59:54;;;;;;;39.85;21.95;;;5.40;47.40;;;;;;5073111;28;20431;-21
2022/03/25 02:02:21;;;;;;;50.40;28.92;;;5.40;48.30;;;;;;5071461;28;20035;-20
2022/03/25 02:04:47;;;;;;;31.92;16.90;;;5.30;48.80;;;;;;5072727;28;20485;-21
2022/03/25 02:07:12;;;;;;;36.40;20.00;;;5.30;49.60;;;;;;5072881;28;20032;-20
2022/03/25 02:09:39;;;;;;;25.02;12.57;;;5.20;49.60;;;;;;5073269;28;20029;-21
2022/03/25 02:12:05;;;;;;;23.33;12.10;;;5.20;49.00;;;;;;5073126;28;20067;-21
2022/03/25 02:14:31;;;;;;;19.20;9.90;;;5.20;49.00;;;;;;5072809;28;20096;-21
2022/03/25 02:16:57;;;;;;;18.90;10.45;;;5.10;48.00;;;;;;5071427;28;20055;-21
2022/03/25 02:19:24;;;;;;;14.65;7.85;;;5.10;48.00;;;;;;5072559;28;20087;-21
2022/03/25 02:21:51;;;;;;;20.40;10.00;;;5.00;47.60;;;;;;5074213;28;20029;-20
2022/03/25 02:24:17;;;;;;;17.15;9.05;;;5.00;47.70;;;;;;5076243;28;20059;-21
2022/03/25 02:26:44;;;;;;;21.63;12.18;;;5.00;47.50;;;;;;5076750;28;20036;-21
2022/03/25 02:29:16;;;;;;;25.00;13.45;;;4.90;47.30;;;;;;5076900;28;20016;-21
2022/03/25 02:31:42;;;;;;;33.92;17.85;;;4.90;48.00;;;;;;5076362;28;20461;-21
2022/03/25 02:34:09;;;;;;;19.83;10.63;;;4.90;48.10;;;;;;5076628;28;20108;-21
2022/03/25 02:36:40;;;;;;;22.50;12.68;;;4.90;47.70;;;;;;5076083;28;20031;-20
2022/03/25 02:39:08;;;;;;;33.45;18.27;;;4.80;47.50;;;;;;5075898;28;20461;-21
2022/03/25 02:41:34;;;;;;;28.88;15.55;;;4.80;48.40;;;;;;5076092;28;20490;-21
2022/03/25 02:44:00;;;;;;;30.35;16.30;;;4.80;49.30;;;;;;5076726;28;20016;-21
2022/03/25 02:46:27;;;;;;;40.70;22.90;;;4.70;48.50;;;;;;5075849;28;20061;-21
2022/03/25 02:48:53;;;;;;;21.55;11.43;;;4.60;49.10;;;;;;5076864;28;20032;-21
2022/03/25 02:51:19;;;;;;;27.10;15.70;;;4.60;48.40;;;;;;5074715;28;20033;-21
2022/03/25 02:53:46;;;;;;;24.70;13.75;;;4.60;48.30;;;;;;5076165;28;20025;-21
2022/03/25 02:56:12;;;;;;;27.70;14.73;;;4.60;47.90;;;;;;5075864;28;20477;-21
2022/03/25 02:58:38;;;;;;;30.17;16.13;;;4.50;48.00;;;;;;5075901;28;20039;-21
2022/03/25 03:01:06;;;;;;;22.05;10.80;;;4.50;48.20;;;;;;5076021;28;20079;-21
2022/03/25 03:03:36;;;;;;;18.05;9.35;;;4.50;48.30;;;;;;5075788;28;20064;-21
2022/03/25 03:06:02;;;;;;;16.05;8.48;;;4.40;48.40;;;;;;5075784;28;20103;-21
2022/03/25 03:08:29;;;;;;;16.08;7.90;;;4.40;47.90;;;;;;5075891;28;20028;-21
2022/03/25 03:10:55;;;;;;;43.17;21.45;;;4.40;47.80;;;;;;5075880;28;20017;-21
2022/03/25 03:13:20;;;;;;;32.03;18.27;;;4.40;49.50;;;;;;5075891;28;20139;-21
2022/03/25 03:15:48;;;;;;;34.58;21.48;;;4.30;48.70;;;;;;5075506;28;20477;-21
2022/03/25 03:18:14;;;;;;;26.33;15.38;;;4.30;48.70;;;;;;5075397;28;20074;-20
2022/03/25 03:20:42;;;;;;;20.95;12.57;;;4.30;49.80;;;;;;5075368;28;20036;-20
2022/03/25 03:23:09;;;;;;;34.50;20.95;;;4.20;48.90;;;;;;5075572;28;20056;-20
2022/03/25 03:25:35;;;;;;;27.58;15.60;;;4.20;49.80;;;;;;5075434;28;20104;-20
2022/03/25 03:28:02;;;;;;;23.42;12.85;;;4.10;49.20;;;;;;5075465;28;20063;-21
2022/03/25 03:30:29;;;;;;;28.13;16.63;;;4.10;49.80;;;;;;5075353;28;20158;-21
2022/03/25 03:32:57;;;;;;;16.23;8.48;;;4.10;49.30;;;;;;5075155;28;20029;-21
2022/03/25 03:35:27;;;;;;;12.88;6.88;;;4.00;49.00;;;;;;5075755;28;20024;-21
2022/03/25 03:37:54;;;;;;;12.48;6.60;;;4.00;48.80;;;;;;5073830;28;20032;-21
2022/03/25 03:40:21;;;;;;;14.05;6.57;;;3.90;48.60;;;;;;5074791;28;20049;-21
2022/03/25 03:42:47;;;;;;;16.85;9.63;;;3.90;48.80;;;;;;5075261;28;20055;-21
2022/03/25 03:45:14;;;;;;;26.35;12.50;;;3.90;48.50;;;;;;5075342;28;20036;-20
2022/03/25 03:47:41;;;;;;;25.85;14.57;;;3.80;48.60;;;;;;5074948;28;20029;-20
2022/03/25 03:50:11;;;;;;;21.58;11.00;;;3.80;49.70;;;;;;5074901;28;20025;-21
2022/03/25 03:52:39;;;;;;;20.85;11.27;;;3.80;49.20;;;;;;5074847;28;20047;-21
2022/03/25 03:55:07;;;;;;;31.75;18.05;;;3.70;49.20;;;;;;5075171;28;20103;-21
2022/03/25 03:57:35;;;;;;;49.97;25.83;;;3.70;49.70;;;;;;5075051;28;20033;-21
2022/03/25 04:00:05;;;;;;;47.90;24.25;;;3.60;52.90;;;;;;5074844;28;20036;-21
2022/03/25 04:02:31;;;;;;;53.53;28.00;;;3.60;53.00;;;;;;5074796;28;20056;-20
2022/03/25 04:04:57;;;;;;;32.35;18.23;;;3.60;55.60;;;;;;5074892;28;20052;-20
2022/03/25 04:07:24;;;;;;;30.80;15.32;;;3.60;52.50;;;;;;5074443;28;20033;-20
2022/03/25 04:09:50;;;;;;;30.73;17.17;;;3.60;52.20;;;;;;5074811;28;20021;-20
2022/03/25 04:12:16;;;;;;;40.45;20.48;;;3.60;51.70;;;;;;5074303;28;20024;-21
2022/03/25 04:14:42;;;;;;;33.30;16.30;;;3.60;52.10;;;;;;5074598;28;20086;-21
2022/03/25 04:17:08;;;;;;;30.05;14.68;;;3.50;52.10;;;;;;5074622;28;20029;-21
2022/03/25 04:19:34;;;;;;;20.63;10.25;;;3.50;51.80;;;;;;5074195;28;20435;-20
2022/03/25 04:22:00;;;;;;;22.70;11.82;;;3.50;52.10;;;;;;5074414;28;20374;-21
2022/03/25 04:24:26;;;;;;;34.80;19.25;;;3.50;50.90;;;;;;5074258;28;20506;-20
2022/03/25 04:26:52;;;;;;;32.92;17.38;;;3.40;51.80;;;;;;5072868;28;20396;-21
2022/03/25 04:29:18;;;;;;;29.65;15.40;;;3.40;52.00;;;;;;5074338;28;20020;-21
2022/03/25 04:31:45;;;;;;;19.40;10.45;;;3.40;52.50;;;;;;5074344;28;20111;-20
2022/03/25 04:34:11;;;;;;;26.20;14.68;;;3.30;51.80;;;;;;5074844;28;20024;-21
2022/03/25 04:36:37;;;;;;;36.45;19.63;;;3.30;52.30;;;;;;5074008;28;20032;-20
2022/03/25 04:39:03;;;;;;;25.35;12.75;;;3.30;52.80;;;;;;5072367;28;20448;-21
2022/03/25 04:41:29;;;;;;;26.23;14.57;;;3.30;52.20;;;;;;5074201;28;20029;-21
2022/03/25 04:43:55;;;;;;;21.48;12.18;;;3.20;51.80;;;;;;5073463;28;20434;-21
2022/03/25 04:46:21;;;;;;;15.32;7.80;;;3.20;54.10;;;;;;5072676;28;20495;-21
2022/03/25 04:48:47;;;;;;;29.25;14.60;;;3.10;52.40;;;;;;5073727;28;20032;-21
2022/03/25 04:51:13;;;;;;;22.88;12.93;;;3.10;54.10;;;;;;5074264;28;20032;-21
2022/03/25 04:53:39;;;;;;;36.00;18.65;;;3.10;52.50;;;;;;5072281;28;20040;-20
2022/03/25 04:56:05;;;;;;;19.92;10.63;;;3.10;52.50;;;;;;5073670;28;20464;-21
2022/03/25 04:58:31;;;;;;;21.35;11.15;;;3.00;51.90;;;;;;5073348;28;20484;-21
2022/03/25 05:00:57;;;;;;;19.60;10.30;;;3.00;52.00;;;;;;5073414;28;20082;-21
2022/03/25 05:03:23;;;;;;;29.83;14.43;;;3.00;52.10;;;;;;5073484;28;20070;-21
2022/03/25 05:05:49;;;;;;;17.67;9.45;;;2.90;51.70;;;;;;5073435;28;20036;-21
2022/03/25 05:08:15;;;;;;;17.00;9.13;;;2.90;51.60;;;;;;5073739;28;20050;-20
2022/03/25 05:10:41;;;;;;;35.75;18.67;;;2.90;51.10;;;;;;5073377;28;20021;-20
2022/03/25 05:13:11;;;;;;;30.05;16.40;;;2.90;52.10;;;;;;5073578;28;20035;-20
2022/03/25 05:15:37;;;;;;;22.67;12.32;;;2.90;53.40;;;;;;5073309;28;20039;-21
2022/03/25 05:18:03;;;;;;;15.13;8.07;;;2.90;52.90;;;;;;5072051;28;20028;-21
2022/03/25 05:20:29;;;;;;;16.35;8.15;;;2.90;51.70;;;;;;5073059;28;20074;-21
2022/03/25 05:22:55;;;;;;;16.30;8.75;;;2.90;51.50;;;;;;5071898;28;20036;-21
2022/03/25 05:25:22;;;;;;;32.05;19.05;;;2.90;51.40;;;;;;5073417;28;20024;-20
2022/03/25 05:27:57;;;;;;;15.20;7.18;;;2.90;51.20;;;;;;5073204;28;20032;-21
2022/03/25 05:30:30;;;;;;;13.40;7.10;;;2.90;50.70;;;;;;5073399;28;20032;-21
2022/03/25 05:32:57;;;;;;;19.20;9.45;;;2.90;50.70;;;;;;5073438;28;20384;-21
2022/03/25 05:35:25;;;;;;;18.85;10.55;;;2.90;50.90;;;;;;5073080;28;20024;-20
2022/03/25 05:37:52;;;;;;;28.40;14.40;;;2.90;52.00;;;;;;5071810;28;20028;-20
2022/03/25 05:40:20;;;;;;;39.38;18.67;;;3.00;51.30;;;;;;5072628;28;20169;-21
2022/03/25 05:42:47;;;;;;;29.33;15.07;;;3.00;52.80;;;;;;5073326;28;20051;-21
2022/03/25 05:45:14;;;;;;;25.88;13.48;;;3.10;53.80;;;;;;5072993;28;20511;-20
2022/03/25 05:47:41;;;;;;;41.53;21.75;;;3.20;52.60;;;;;;5073294;28;20554;-20
2022/03/25 05:50:11;;;;;;;47.45;23.58;;;3.20;54.40;;;;;;5071700;28;20076;-21
2022/03/25 05:52:41;;;;;;;31.60;16.42;;;3.30;55.30;;;;;;5072958;28;20016;-21
2022/03/25 05:55:07;;;;;;;33.28;15.68;;;3.40;54.60;;;;;;5073193;28;20028;-20
2022/03/25 05:57:34;;;;;;;27.25;13.68;;;3.50;53.10;;;;;;5075845;28;20025;-21
2022/03/25 06:00:02;;;;;;;28.70;14.60;;;3.60;52.70;;;;;;5077185;28;20058;-21
2022/03/25 06:02:28;;;;;;;29.55;16.60;;;3.70;52.30;;;;;;5076835;28;20012;-21
2022/03/25 06:04:55;;;;;;;33.28;17.58;;;3.90;53.00;;;;;;5077109;28;20082;-21
2022/03/25 06:07:22;;;;;;;35.53;16.40;;;4.00;53.10;;;;;;5076980;28;20032;-21
2022/03/25 06:09:48;;;;;;;27.95;13.60;;;4.10;52.80;;;;;;5077133;28;20044;-21
2022/03/25 06:12:14;;;;;;;32.08;18.02;;;4.20;51.80;;;;;;5076830;28;20033;-21
2022/03/25 06:14:40;;;;;;;27.95;14.95;;;4.40;54.10;;;;;;5076974;28;20048;-21
2022/03/25 06:17:06;;;;;;;51.75;20.38;;;4.50;52.70;;;;;;5076600;28;20523;-21
2022/03/25 06:19:33;;;;;;;30.52;14.10;;;4.80;52.80;;;;;;5076761;28;20127;-21
2022/03/25 06:21:59;;;;;;;31.75;15.55;;;4.90;52.10;;;;;;5076442;28;20039;-21
2022/03/25 06:24:26;;;;;;;33.05;16.63;;;5.20;52.20;;;;;;5076624;28;20111;-21
2022/03/25 06:26:52;;;;;;;32.10;17.80;;;5.40;52.40;;;;;;5076715;28;20028;-20
2022/03/25 06:29:19;;;;;;;35.10;17.25;;;5.60;52.50;;;;;;5076689;28;20104;-21
2022/03/25 06:31:46;;;;;;;41.15;21.05;;;5.90;51.20;;;;;;5076302;28;20418;-20
2022/03/25 06:34:14;;;;;;;33.88;16.50;;;6.10;50.90;;;;;;5076268;28;20124;-20
2022/03/25 06:36:40;;;;;;;23.60;11.68;;;6.30;50.90;;;;;;5076389;28;20559;-21
2022/03/25 06:39:06;;;;;;;33.75;17.50;;;6.60;50.10;;;;;;5076027;28;20143;-20
2022/03/25 06:41:32;;;;;;;19.40;9.68;;;6.80;50.30;;;;;;5076490;28;20051;-20
2022/03/25 06:43:58;;;;;;;33.55;18.00;;;7.10;50.00;;;;;;5076269;28;20028;-20
2022/03/25 06:46:24;;;;;;;40.47;20.92;;;7.30;49.50;;;;;;5075857;28;20037;-20
2022/03/25 06:48:52;;;;;;;21.65;12.85;;;7.50;50.00;;;;;;5076506;28;20031;-20
2022/03/25 06:51:18;;;;;;;36.15;20.58;;;7.70;49.20;;;;;;5076001;28;20032;-20
2022/03/25 06:53:44;;;;;;;24.25;14.40;;;7.90;50.60;;;;;;5075845;28;20039;-20
2022/03/25 06:56:11;;;;;;;32.60;17.67;;;8.10;49.50;;;;;;5075987;28;20361;-20
2022/03/25 06:58:37;;;;;;;28.75;15.65;;;8.30;49.20;;;;;;5075911;28;20048;-21
2022/03/25 07:01:05;;;;;;;37.25;19.60;;;8.50;48.90;;;;;;5076009;28;20131;-20
2022/03/25 07:03:33;;;;;;;37.58;18.60;;;8.80;48.70;;;;;;5076099;28;20051;-20
2022/03/25 07:06:00;;;;;;;41.38;21.25;;;8.90;48.30;;;;;;5075755;28;20032;-20
2022/03/25 07:08:29;;;;;;;53.55;25.48;;;9.20;49.00;;;;;;5074693;28;20412;-21
2022/03/25 07:10:56;;;;;;;55.40;29.20;;;9.40;48.80;;;;;;5075741;28;20016;-20
2022/03/25 07:13:22;;;;;;;31.88;17.15;;;9.60;48.80;;;;;;5075903;28;20035;-21
2022/03/25 07:15:48;;;;;;;40.10;21.45;;;9.80;48.00;;;;;;5076087;28;20028;-20
2022/03/25 07:18:14;;;;;;;35.28;17.75;;;9.90;47.70;;;;;;5075580;28;20119;-21
2022/03/25 07:20:40;;;;;;;41.85;22.05;;;10.10;47.60;;;;;;5076086;28;20111;-20
2022/03/25 07:23:06;;;;;;;40.83;22.20;;;10.30;47.70;;;;;;5075589;28;20032;-20
2022/03/25 07:25:32;;;;;;;34.17;18.02;;;10.50;47.80;;;;;;5075393;28;20029;-20
2022/03/25 07:27:58;;;;;;;37.53;19.55;;;10.70;47.20;;;;;;5075501;28;20029;-20
2022/03/25 07:30:24;;;;;;;24.42;13.05;;;10.90;47.00;;;;;;5075147;28;20034;-20
2022/03/25 07:32:50;;;;;;;32.78;18.58;;;11.00;46.70;;;;;;5075605;28;20024;-19
2022/03/25 07:35:16;;;;;;;26.08;12.75;;;11.20;46.50;;;;;;5075171;28;20033;-20
2022/03/25 07:37:43;;;;;;;24.83;12.85;;;11.40;46.10;;;;;;5075403;28;20070;-20
2022/03/25 07:40:11;;;;;;;34.42;18.00;;;11.60;46.00;;;;;;5074930;28;20052;-19
2022/03/25 07:42:39;;;;;;;23.90;12.45;;;11.80;45.90;;;;;;5074930;28;20174;-20
2022/03/25 07:45:10;;;;;;;28.85;16.30;;;12.00;45.40;;;;;;5075282;28;20102;-20
2022/03/25 07:47:47;;;;;;;27.90;15.60;;;12.20;45.20;;;;;;5075335;28;20027;-20
2022/03/25 07:50:17;;;;;;;20.95;11.75;;;12.40;44.90;;;;;;5075291;28;20028;-20
2022/03/25 07:52:44;;;;;;;25.42;13.55;;;12.60;44.70;;;;;;5074868;28;20035;-20
2022/03/25 07:55:10;;;;;;;26.45;14.70;;;12.90;44.50;;;;;;5075072;28;20108;-20
2022/03/25 07:57:40;;;;;;;18.63;10.68;;;13.10;44.20;;;;;;5075036;28;20024;-20
2022/03/25 08:00:11;;;;;;;29.25;14.73;;;13.30;43.90;;;;;;5074950;28;20036;-20
2022/03/25 08:02:43;;;;;;;30.73;17.23;;;13.50;43.70;;;;;;5074790;28;20027;-20
2022/03/25 08:05:11;;;;;;;31.58;17.63;;;13.80;43.40;;;;;;5074672;28;20028;-20
2022/03/25 08:07:48;;;;;;;28.90;17.88;;;14.00;43.10;;;;;;5074832;28;20024;-20
2022/03/25 08:10:24;;;;;;;28.67;16.17;;;14.30;42.90;;;;;;5074379;28;20021;-20
2022/03/25 08:12:50;;;;;;;20.60;12.15;;;14.50;42.50;;;;;;5074473;28;20031;-19
2022/03/25 08:15:18;;;;;;;20.10;11.32;;;14.80;42.20;;;;;;5074397;28;20107;-20
2022/03/25 08:17:57;;;;;;;30.58;16.58;;;15.00;41.90;;;;;;5074669;28;20025;-20
2022/03/25 08:20:26;;;;;;;29.20;16.75;;;15.30;41.60;;;;;;5073271;28;20040;-20
2022/03/25 08:22:53;;;;;;;27.38;15.98;;;15.50;40.90;;;;;;5074494;28;20039;-20
2022/03/25 08:28:04;;;;;;;31.52;20.10;;;15.80;40.40;;;;;;5074579;28;20044;-19
2022/03/25 08:30:32;;;;;;;30.77;19.23;;;16.00;40.10;;;;;;5074006;28;20028;-19
2022/03/25 08:32:59;;;;;;;33.08;19.13;;;16.10;40.00;;;;;;5074183;28;20447;-19
2022/03/25 08:35:26;;;;;;;22.83;13.00;;;16.30;39.60;;;;;;5074388;28;20081;-20
2022/03/25 08:37:53;;;;;;;28.27;16.48;;;16.50;39.60;;;;;;5073880;28;20475;-20
2022/03/25 08:40:23;;;;;;;32.10;20.38;;;16.70;39.30;;;;;;5073573;28;20084;-20
2022/03/25 08:42:49;;;;;;;31.13;16.40;;;16.90;38.90;;;;;;5074217;28;20025;-20
2022/03/25 08:45:16;;;;;;;36.85;21.65;;;17.20;38.40;;;;;;5074207;28;20420;-20
2022/03/25 08:47:44;;;;;;;30.13;17.20;;;17.40;38.40;;;;;;5074079;28;20032;-20
2022/03/25 08:50:12;;;;;;;27.00;15.90;;;17.70;38.00;;;;;;5073767;28;20499;-20
2022/03/25 08:52:43;;;;;;;33.97;19.85;;;17.90;37.80;;;;;;5073628;28;20037;-20
2022/03/25 08:55:10;;;;;;;31.70;18.98;;;18.20;37.50;;;;;;5073719;28;20035;-20
2022/03/25 08:57:38;;;;;;;29.83;17.73;;;18.40;36.90;;;;;;5073930;28;20028;-20
2022/03/25 09:00:10;;;;;;;32.72;19.92;;;18.70;36.70;;;;;;5073476;28;20033;-20
2022/03/25 09:02:37;;;;;;;32.53;18.63;;;18.90;36.30;;;;;;5073710;28;20086;-20
2022/03/25 09:05:04;;;;;;;27.10;16.40;;;19.20;36.20;;;;;;5074112;28;20027;-20
2022/03/25 09:07:31;;;;;;;31.55;17.80;;;19.40;35.90;;;;;;5073675;28;20107;-20
2022/03/25 09:09:57;;;;;;;29.77;16.52;;;19.70;35.60;;;;;;5073632;28;20016;-20
2022/03/25 09:12:23;;;;;;;29.42;17.63;;;20.00;35.30;;;;;;5073206;28;20112;-20
2022/03/25 09:14:49;;;;;;;29.65;18.95;;;20.30;34.70;;;;;;5073313;28;20067;-20
2022/03/25 09:17:16;;;;;;;31.67;18.63;;;20.50;34.40;;;;;;5073382;28;20032;-20
2022/03/25 09:19:43;;;;;;;27.20;16.75;;;20.80;34.30;;;;;;5074159;28;20047;-20
2022/03/25 09:22:09;;;;;;;34.13;19.88;;;21.10;34.00;;;;;;5073472;28;20111;-20
2022/03/25 09:24:36;;;;;;;33.08;19.98;;;21.40;33.90;;;;;;5073374;28;20024;-20
2022/03/25 09:27:04;;;;;;;29.45;19.50;;;21.60;33.40;;;;;;5073085;28;20484;-20
2022/03/25 09:29:30;;;;;;;26.60;16.83;;;21.90;33.20;;;;;;5073524;28;20036;-20
2022/03/25 09:31:56;;;;;;;35.15;21.23;;;22.20;32.90;;;;;;5072915;28;20085;-20
2022/03/25 09:37:06;;;;;;;35.65;22.95;;;22.80;32.20;;;;;;5073102;28;20035;-22
2022/03/25 09:39:32;;;;;;;38.53;23.52;;;23.10;31.80;;;;;;5072632;28;20037;-20
2022/03/25 09:42:01;;;;;;;34.72;22.02;;;23.30;31.70;;;;;;5072992;28;20059;-20
2022/03/25 09:44:27;;;;;;;38.95;24.33;;;23.50;31.30;;;;;;5072901;28;20388;-20
2022/03/25 09:46:53;;;;;;;33.03;20.65;;;23.80;31.00;;;;;;5072996;28;20509;-20
2022/03/25 09:49:20;;;;;;;38.15;22.52;;;23.90;30.80;;;;;;5072195;28;20032;-20
2022/03/25 09:51:46;;;;;;;34.53;22.50;;;24.20;30.60;;;;;;5072926;28;20028;-20
2022/03/25 09:54:16;;;;;;;31.88;19.30;;;24.40;30.60;;;;;;5072801;28;20442;-20
2022/03/25 09:58:18;;;;;;;31.48;20.33;;;24.80;30.10;;;;;;5108452;27;20440;-20
2022/03/25 10:02:46;;;;;;;43.83;25.10;;;25.30;29.30;;;;;;5108646;27;20443;-20
2022/03/25 10:05:16;;;;;;;36.30;23.13;;;25.50;29.70;;;;;;5111279;28;20036;-20
2022/03/25 10:07:50;;;;;;;38.22;22.50;;;25.70;29.20;;;;;;5110802;28;20020;-20
2022/03/25 10:10:21;;;;;;;33.03;20.75;;;25.90;29.10;;;;;;5110948;28;20085;-21
2022/03/25 10:12:49;;;;;;;33.88;22.42;;;25.90;28.90;;;;;;5111088;28;20085;-20
2022/03/25 10:15:41;;;;;;;30.50;19.38;;;26.10;29.00;;;;;;5110712;28;20042;-20
2022/03/25 10:18:09;;;;;;;35.53;23.23;;;26.40;27.50;;;;;;5109596;28;20028;-20
2022/03/25 10:20:39;;;;;;;32.35;20.38;;;26.60;28.50;;;;;;5110696;28;20035;-20
2022/03/25 10:23:17;;;;;;;35.17;23.17;;;26.80;28.40;;;;;;5110569;28;20126;-20
2022/03/25 10:25:55;;;;;;;32.28;19.98;;;27.00;27.70;;;;;;5110620;28;20099;-20
2022/03/25 10:28:40;;;;;;;36.33;23.65;;;27.30;28.10;;;;;;5110392;28;20024;-20
2022/03/25 10:31:11;;;;;;;38.55;24.85;;;27.40;28.20;;;;;;5110863;28;20031;-20
2022/03/25 10:33:43;;;;;;;35.70;21.23;;;27.70;27.60;;;;;;5110793;28;20027;-20
2022/03/25 10:36:11;;;;;;;38.25;24.52;;;28.00;27.30;;;;;;5110359;28;20036;-20
2022/03/25 10:38:47;;;;;;;36.28;22.73;;;28.20;27.30;;;;;;5110365;28;20032;-20
2022/03/25 10:41:20;;;;;;;27.92;19.10;;;28.40;27.00;;;;;;5109077;28;20479;-20
2022/03/25 10:43:53;;;;;;;32.42;22.95;;;28.60;27.00;;;;;;5110331;28;20077;-20
2022/03/25 10:46:27;;;;;;;33.15;21.85;;;28.90;26.30;;;;;;5110317;28;20024;-20
2022/03/25 10:48:54;;;;;;;33.35;22.45;;;29.10;25.80;;;;;;5110995;28;20024;-20
2022/03/25 10:51:20;;;;;;;29.27;19.10;;;29.30;26.10;;;;;;5110429;28;20027;-20
2022/03/25 10:53:54;;;;;;;33.03;21.38;;;29.50;26.20;;;;;;5109979;28;20057;-20
2022/03/25 10:56:20;;;;;;;27.50;18.65;;;29.70;25.80;;;;;;5108627;28;20020;-21
2022/03/25 10:58:54;;;;;;;25.05;16.63;;;30.00;25.80;;;;;;5110296;28;20475;-20
2022/03/25 11:01:20;;;;;;;38.60;24.70;;;30.30;25.40;;;;;;5109684;28;20055;-20
2022/03/25 11:03:50;;;;;;;35.10;22.83;;;30.50;25.30;;;;;;5109882;28;20574;-20
2022/03/25 11:06:18;;;;;;;32.88;22.25;;;30.70;25.10;;;;;;5109999;28;20028;-20
2022/03/25 11:08:48;;;;;;;32.42;22.60;;;31.00;24.70;;;;;;5110019;28;20073;-21
2022/03/25 11:11:16;;;;;;;32.33;21.75;;;31.20;24.50;;;;;;5109738;28;20024;-20
2022/03/25 11:13:45;;;;;;;23.58;16.90;;;31.40;24.30;;;;;;5098610;28;20021;-20
2022/03/25 11:16:15;;;;;;;29.88;20.65;;;31.70;24.30;;;;;;5096020;28;20506;-19
2022/03/25 11:18:48;;;;;;;28.90;19.10;;;31.90;24.30;;;;;;5096053;28;20028;-20
2022/03/25 11:21:16;;;;;;;27.97;20.30;;;32.20;23.90;;;;;;5096172;28;20392;-20
2022/03/25 11:23:47;;;;;;;22.33;15.65;;;32.40;23.80;;;;;;5095877;28;20258;-18
2022/03/25 11:26:22;;;;;;;28.05;20.85;;;32.70;23.80;;;;;;5096038;28;20028;-19
2022/03/25 11:28:53;;;;;;;39.15;25.25;;;33.00;23.60;;;;;;5096190;28;20044;-19
2022/03/25 11:31:19;;;;;;;39.53;26.58;;;33.20;22.80;;;;;;5096133;28;20031;-18
2022/03/25 11:34:06;;;;;;;36.65;24.85;;;33.30;22.60;;;;;;5096069;28;20488;-18
2022/03/25 11:36:32;;;;;;;33.00;23.98;;;33.40;21.30;;;;;;5095465;28;20063;-18
2022/03/25 11:39:21;;;;;;;34.17;23.15;;;33.40;22.20;;;;;;5095798;28;20028;-18
2022/03/25 11:41:47;;;;;;;28.25;20.48;;;33.40;21.10;;;;;;5095593;28;20035;-18
2022/03/25 11:44:18;;;;;;;25.48;17.80;;;33.50;22.20;;;;;;5095329;28;20487;-19
2022/03/25 11:47:00;;;;;;;27.40;19.73;;;33.60;22.20;;;;;;5095485;28;20032;-18
2022/03/25 11:49:28;;;;;;;36.58;25.23;;;33.80;21.30;;;;;;5095414;28;20484;-18
2022/03/25 11:51:54;;;;;;;26.90;19.10;;;33.90;21.40;;;;;;5095739;28;20020;-18
2022/03/25 11:54:40;;;;;;;24.38;18.15;;;34.10;21.60;;;;;;5095294;28;20102;-20
2022/03/25 11:57:23;;;;;;;30.30;21.08;;;34.40;19.40;;;;;;5095336;28;20060;-20
2022/03/25 11:59:55;;;;;;;34.00;23.63;;;34.40;19.20;;;;;;5095618;28;20031;-20
2022/03/25 12:02:36;;;;;;;30.85;22.40;;;34.50;20.40;;;;;;5093557;28;20503;-20
2022/03/25 12:05:24;;;;;;;31.67;23.02;;;34.70;20.00;;;;;;5095181;28;20021;-20
2022/03/25 12:08:21;;;;;;;24.02;17.42;;;34.80;20.60;;;;;;5094842;28;20500;-20
2022/03/25 12:10:49;;;;;;;24.70;16.90;;;34.90;18.90;;;;;;5095311;28;20024;-20
2022/03/25 12:13:19;;;;;;;33.15;21.75;;;35.00;20.90;;;;;;5095517;28;20073;-20
2022/03/25 12:15:47;;;;;;;28.13;20.25;;;35.10;20.50;;;;;;5094924;28;20468;-20
2022/03/25 12:18:40;;;;;;;30.83;22.55;;;35.20;20.30;;;;;;5094671;28;20028;-22
2022/03/25 12:21:24;;;;;;;29.27;19.67;;;35.40;19.80;;;;;;5095017;28;20024;-21
2022/03/25 12:23:58;;;;;;;23.27;16.08;;;35.60;19.70;;;;;;5094205;28;20099;-20
2022/03/25 12:26:35;;;;;;;20.38;14.95;;;35.70;19.70;;;;;;5094293;28;20073;-21
2022/03/25 12:29:02;;;;;;;26.77;20.30;;;35.90;19.40;;;;;;5095000;28;20081;-21
2022/03/25 12:31:29;;;;;;;28.88;20.15;;;36.10;19.60;;;;;;5094624;28;20093;-20
2022/03/25 12:34:01;;;;;;;32.40;22.83;;;36.10;19.30;;;;;;5094728;28;20395;-20
2022/03/25 12:36:56;;;;;;;25.67;19.58;;;36.20;19.10;;;;;;5094341;28;20035;-20
2022/03/25 12:39:22;;;;;;;24.52;18.52;;;36.20;16.90;;;;;;5093618;28;20107;-20
2022/03/25 12:41:49;;;;;;;28.25;21.25;;;36.20;19.20;;;;;;5094639;28;20159;-20
2022/03/25 12:44:16;;;;;;;27.35;19.73;;;36.20;18.80;;;;;;5094153;28;20028;-21
2022/03/25 12:46:41;;;;;;;29.20;19.63;;;36.10;18.80;;;;;;5095273;28;20021;-20
2022/03/25 12:49:11;;;;;;;22.88;17.42;;;36.20;18.90;;;;;;5094592;28;20410;-20